SIMBA11 RJSM-RJSM
Flight info
| Callsign | SIMBA11 |
|---|---|
| Flight time | 0h 38m |
| Altitude | 50000 |
| Route | TAPPI BISAM NODAN GABII |
| Aircraft | F22/M-SGR/C |
Departure
| Time | 2026-05-07 00:15 |
|---|---|
| Airport | Misawa Airport / Misawa Air Base (RJSM) |
Arrival
| Time | 2026-05-07 00:53 |
|---|---|
| Airport | Misawa Airport / Misawa Air Base (RJSM) |
| Time | Latitude | Longitude | Altitude | Speed | Heading |
|---|---|---|---|---|---|
| 2026-05-07 00:02 | 40.70501 | 141.38439 | 101 ft | 0 kts | 9° |
| 2026-05-07 00:12 | 40.70502 | 141.38452 | 128 ft | 3 kts | 127° |
| 2026-05-07 00:12 | 40.70481 | 141.38436 | 101 ft | 6 kts | 190° |
| 2026-05-07 00:12 | 40.70434 | 141.38444 | 101 ft | 9 kts | 125° |
| 2026-05-07 00:13 | 40.70423 | 141.38560 | 100 ft | 16 kts | 94° |
| 2026-05-07 00:13 | 40.70389 | 141.38630 | 100 ft | 10 kts | 179° |
| 2026-05-07 00:13 | 40.70297 | 141.38620 | 100 ft | 11 kts | 185° |
| 2026-05-07 00:13 | 40.70262 | 141.38615 | 100 ft | 0 kts | 186° |
| 2026-05-07 00:14 | 40.70258 | 141.38614 | 99 ft | 14 kts | 186° |
| 2026-05-07 00:14 | 40.70212 | 141.38429 | 100 ft | 78 kts | 275° |
| 2026-05-07 00:14 | 40.70320 | 141.36977 | 259 ft | 249 kts | 274° |
| 2026-05-07 00:15 | 40.70507 | 141.34536 | 869 ft | 312 kts | 274° |
| 2026-05-07 00:15 | 40.70766 | 141.31717 | 1550 ft | 260 kts | 275° |
| 2026-05-07 00:15 | 40.71034 | 141.29585 | 2498 ft | 229 kts | 280° |
| 2026-05-07 00:15 | 40.71395 | 141.27569 | 7401 ft | 253 kts | 279° |
| 2026-05-07 00:16 | 40.71823 | 141.24986 | 14600 ft | 306 kts | 278° |
| 2026-05-07 00:16 | 40.72285 | 141.22126 | 22455 ft | 325 kts | 278° |
| 2026-05-07 00:16 | 40.72705 | 141.18800 | 24904 ft | 368 kts | 276° |
| 2026-05-07 00:16 | 40.73084 | 141.15610 | 24874 ft | 339 kts | 276° |
| 2026-05-07 00:17 | 40.73444 | 141.12685 | 24696 ft | 317 kts | 276° |
| 2026-05-07 00:17 | 40.73799 | 141.09890 | 24401 ft | 299 kts | 276° |
| 2026-05-07 00:17 | 40.74150 | 141.07246 | 24013 ft | 286 kts | 276° |
| 2026-05-07 00:17 | 40.74501 | 141.04668 | 23560 ft | 312 kts | 276° |
| 2026-05-07 00:18 | 40.74953 | 141.01079 | 23312 ft | 484 kts | 277° |
| 2026-05-07 00:18 | 40.75565 | 140.96067 | 23441 ft | 555 kts | 277° |
| 2026-05-07 00:18 | 40.76183 | 140.91171 | 23518 ft | 542 kts | 277° |
| 2026-05-07 00:18 | 40.76865 | 140.86266 | 23584 ft | 544 kts | 280° |
| 2026-05-07 00:19 | 40.78312 | 140.81698 | 23612 ft | 556 kts | 302° |
| 2026-05-07 00:19 | 40.81192 | 140.78175 | 23654 ft | 577 kts | 323° |
| 2026-05-07 00:19 | 40.84730 | 140.75576 | 23641 ft | 581 kts | 327° |
| 2026-05-07 00:19 | 40.88321 | 140.73096 | 23611 ft | 581 kts | 326° |
| 2026-05-07 00:20 | 40.91498 | 140.70030 | 23600 ft | 567 kts | 311° |
| 2026-05-07 00:20 | 40.94133 | 140.66175 | 23600 ft | 560 kts | 304° |
| 2026-05-07 00:20 | 40.96425 | 140.62013 | 23591 ft | 557 kts | 300° |
| 2026-05-07 00:20 | 40.98533 | 140.57764 | 23573 ft | 555 kts | 298° |
| 2026-05-07 00:21 | 41.00521 | 140.53388 | 23557 ft | 553 kts | 293° |
| 2026-05-07 00:21 | 41.02120 | 140.48768 | 23570 ft | 549 kts | 290° |
| 2026-05-07 00:21 | 41.03714 | 140.44144 | 23571 ft | 551 kts | 292° |
| 2026-05-07 00:21 | 41.05346 | 140.39618 | 23570 ft | 551 kts | 292° |
| 2026-05-07 00:22 | 41.06982 | 140.35010 | 23565 ft | 550 kts | 291° |
| 2026-05-07 00:22 | 41.08603 | 140.30389 | 23563 ft | 551 kts | 291° |
| 2026-05-07 00:22 | 41.10206 | 140.25842 | 23555 ft | 551 kts | 291° |
| 2026-05-07 00:22 | 41.11833 | 140.21221 | 23553 ft | 550 kts | 290° |
| 2026-05-07 00:23 | 41.12852 | 140.16383 | 23562 ft | 541 kts | 270° |
| 2026-05-07 00:23 | 41.12214 | 140.11549 | 23618 ft | 540 kts | 247° |
| 2026-05-07 00:23 | 41.10076 | 140.07396 | 23647 ft | 546 kts | 231° |
| 2026-05-07 00:23 | 41.07469 | 140.03723 | 23624 ft | 548 kts | 229° |
| 2026-05-07 00:24 | 41.04691 | 139.99979 | 23605 ft | 602 kts | 228° |
| 2026-05-07 00:24 | 41.01595 | 139.95834 | 23580 ft | 656 kts | 228° |
| 2026-05-07 00:24 | 40.98335 | 139.91478 | 23533 ft | 698 kts | 227° |
| 2026-05-07 00:24 | 40.94905 | 139.86726 | 23528 ft | 726 kts | 232° |
| 2026-05-07 00:25 | 40.91727 | 139.81431 | 23544 ft | 745 kts | 233° |
| 2026-05-07 00:25 | 40.88393 | 139.76133 | 23549 ft | 746 kts | 232° |
| 2026-05-07 00:25 | 40.85080 | 139.70839 | 23552 ft | 746 kts | 233° |
| 2026-05-07 00:25 | 40.81782 | 139.65554 | 23552 ft | 746 kts | 232° |
| 2026-05-07 00:26 | 40.78461 | 139.60276 | 23553 ft | 746 kts | 232° |
| 2026-05-07 00:26 | 40.75137 | 139.54976 | 23555 ft | 746 kts | 232° |
| 2026-05-07 00:26 | 40.71847 | 139.49760 | 23562 ft | 746 kts | 232° |
| 2026-05-07 00:26 | 40.68524 | 139.44481 | 23557 ft | 753 kts | 232° |
| 2026-05-07 00:27 | 40.65149 | 139.39154 | 23565 ft | 764 kts | 232° |
| 2026-05-07 00:27 | 40.61732 | 139.33720 | 23566 ft | 770 kts | 232° |
| 2026-05-07 00:27 | 40.58311 | 139.28393 | 23563 ft | 770 kts | 231° |
| 2026-05-07 00:27 | 40.54883 | 139.22960 | 23559 ft | 769 kts | 233° |
| 2026-05-07 00:28 | 40.51466 | 139.17495 | 23565 ft | 770 kts | 231° |
| 2026-05-07 00:28 | 40.47916 | 139.12196 | 23562 ft | 770 kts | 232° |
| 2026-05-07 00:28 | 40.44642 | 139.06722 | 23569 ft | 768 kts | 234° |
| 2026-05-07 00:28 | 40.41151 | 139.01395 | 23574 ft | 771 kts | 228° |
| 2026-05-07 00:29 | 40.37551 | 138.96176 | 23575 ft | 769 kts | 233° |
| 2026-05-07 00:29 | 40.34400 | 138.90599 | 23578 ft | 768 kts | 234° |
| 2026-05-07 00:30 | 40.24032 | 138.74494 | 23578 ft | 768 kts | 234° |
| 2026-05-07 00:30 | 40.20475 | 138.69241 | 23584 ft | 772 kts | 227° |
| 2026-05-07 00:30 | 40.16824 | 138.64098 | 23593 ft | 768 kts | 234° |
| 2026-05-07 00:30 | 40.13723 | 138.58546 | 24200 ft | 764 kts | 234° |
| 2026-05-07 00:31 | 40.10162 | 138.53373 | 24910 ft | 763 kts | 228° |
| 2026-05-07 00:31 | 40.06709 | 138.48159 | 25574 ft | 744 kts | 235° |
| 2026-05-07 00:31 | 40.03481 | 138.43107 | 29427 ft | 714 kts | 230° |
| 2026-05-07 00:31 | 40.01295 | 138.39929 | 31898 ft | 700 kts | 232° |
| 2026-05-07 00:32 | 39.97202 | 138.33551 | 36827 ft | 681 kts | 232° |
| 2026-05-07 00:32 | 39.94143 | 138.28921 | 40391 ft | 669 kts | 231° |
| 2026-05-07 00:32 | 39.91981 | 138.26076 | 42124 ft | 673 kts | 222° |
| 2026-05-07 00:32 | 39.87959 | 138.22809 | 43449 ft | 697 kts | 210° |
| 2026-05-07 00:33 | 39.81469 | 138.20973 | 43179 ft | 751 kts | 182° |
| 2026-05-07 00:33 | 39.77909 | 138.21547 | 43205 ft | 778 kts | 170° |
| 2026-05-07 00:33 | 39.72874 | 138.24207 | 43233 ft | 801 kts | 152° |
| 2026-05-07 00:33 | 39.68531 | 138.28870 | 43238 ft | 823 kts | 134° |
| 2026-05-07 00:34 | 39.65343 | 138.35141 | 43237 ft | 840 kts | 116° |
| 2026-05-07 00:34 | 39.63641 | 138.42438 | 43236 ft | 854 kts | 99° |
| 2026-05-07 00:34 | 39.63566 | 138.50055 | 43244 ft | 861 kts | 81° |
| 2026-05-07 00:34 | 39.65133 | 138.57537 | 43240 ft | 851 kts | 64° |
| 2026-05-07 00:35 | 39.68215 | 138.64095 | 43238 ft | 849 kts | 46° |
| 2026-05-07 00:35 | 39.72498 | 138.69348 | 43244 ft | 840 kts | 34° |
| 2026-05-07 00:35 | 39.76936 | 138.73755 | 43121 ft | 766 kts | 32° |
| 2026-05-07 00:35 | 39.81005 | 138.77658 | 43059 ft | 701 kts | 32° |
| 2026-05-07 00:36 | 39.84768 | 138.81275 | 43034 ft | 643 kts | 31° |
| 2026-05-07 00:36 | 39.88209 | 138.84625 | 42990 ft | 620 kts | 32° |
| 2026-05-07 00:36 | 39.95122 | 138.91469 | 42985 ft | 623 kts | 32° |
| 2026-05-07 00:37 | 40.01918 | 138.98472 | 42975 ft | 625 kts | 34° |
| 2026-05-07 00:37 | 40.08626 | 139.05710 | 42980 ft | 627 kts | 35° |
| 2026-05-07 00:38 | 40.11837 | 139.09505 | 42965 ft | 633 kts | 46° |
| 2026-05-07 00:38 | 40.14170 | 139.14436 | 43043 ft | 645 kts | 68° |
| 2026-05-07 00:38 | 40.16641 | 139.25687 | 43042 ft | 646 kts | 75° |
| 2026-05-07 00:39 | 40.19311 | 139.36887 | 42996 ft | 645 kts | 71° |
| 2026-05-07 00:39 | 40.21989 | 139.48089 | 42987 ft | 645 kts | 71° |
| 2026-05-07 00:40 | 40.24686 | 139.59288 | 42985 ft | 645 kts | 71° |
| 2026-05-07 00:40 | 40.27360 | 139.70524 | 42984 ft | 645 kts | 71° |
| 2026-05-07 00:41 | 40.30021 | 139.81746 | 42992 ft | 645 kts | 71° |
| 2026-05-07 00:41 | 40.32668 | 139.92973 | 42986 ft | 645 kts | 71° |
| 2026-05-07 00:42 | 40.35295 | 140.04176 | 42982 ft | 645 kts | 72° |
| 2026-05-07 00:42 | 40.37918 | 140.15422 | 43001 ft | 645 kts | 72° |
| 2026-05-07 00:43 | 40.40525 | 140.26654 | 42995 ft | 646 kts | 72° |
| 2026-05-07 00:43 | 40.43131 | 140.37960 | 43002 ft | 647 kts | 72° |
| 2026-05-07 00:44 | 40.45712 | 140.49174 | 42995 ft | 642 kts | 72° |
| 2026-05-07 00:44 | 40.48290 | 140.60456 | 42975 ft | 644 kts | 72° |
| 2026-05-07 00:45 | 40.50840 | 140.71663 | 42967 ft | 644 kts | 72° |
| 2026-05-07 00:45 | 40.53393 | 140.82945 | 42970 ft | 643 kts | 72° |
| 2026-05-07 00:46 | 40.55926 | 140.94197 | 42963 ft | 642 kts | 72° |
| 2026-05-07 00:46 | 40.58467 | 141.05536 | 42972 ft | 645 kts | 72° |
| 2026-05-07 00:47 | 40.60976 | 141.16798 | 42945 ft | 628 kts | 72° |
| 2026-05-07 00:47 | 40.61905 | 141.21170 | 44979 ft | 291 kts | 84° |
| 2026-05-07 00:47 | 40.62265 | 141.23254 | 44735 ft | 213 kts | 73° |
| 2026-05-07 00:48 | 40.62605 | 141.25215 | 40410 ft | 234 kts | 72° |
| 2026-05-07 00:48 | 40.63009 | 141.27427 | 36201 ft | 267 kts | 72° |
| 2026-05-07 00:48 | 40.63480 | 141.29883 | 33425 ft | 279 kts | 73° |
| 2026-05-07 00:48 | 40.63944 | 141.32310 | 31524 ft | 256 kts | 73° |
| 2026-05-07 00:49 | 40.64357 | 141.34440 | 29513 ft | 229 kts | 66° |
| 2026-05-07 00:49 | 40.64796 | 141.36270 | 26717 ft | 177 kts | 58° |
| 2026-05-07 00:49 | 40.65262 | 141.37823 | 23723 ft | 201 kts | 58° |
| 2026-05-07 00:49 | 40.65902 | 141.39563 | 21338 ft | 215 kts | 57° |
| 2026-05-07 00:50 | 40.66588 | 141.41291 | 19875 ft | 210 kts | 58° |
| 2026-05-07 00:50 | 40.67262 | 141.42960 | 18653 ft | 203 kts | 58° |
| 2026-05-07 00:50 | 40.67856 | 141.44456 | 17225 ft | 149 kts | 62° |
| 2026-05-07 00:50 | 40.68213 | 141.45451 | 14539 ft | 113 kts | 64° |
| 2026-05-07 00:51 | 40.68862 | 141.46524 | 11297 ft | 221 kts | 41° |
| 2026-05-07 00:51 | 40.70324 | 141.47422 | 7450 ft | 215 kts | 320° |
| 2026-05-07 00:51 | 40.71510 | 141.45353 | 2153 ft | 332 kts | 239° |
| 2026-05-07 00:51 | 40.70124 | 141.44159 | 1644 ft | 197 kts | 260° |
| 2026-05-07 00:52 | 40.70101 | 141.42372 | 1027 ft | 177 kts | 268° |
| 2026-05-07 00:52 | 40.70113 | 141.40845 | 623 ft | 188 kts | 270° |
| 2026-05-07 00:52 | 40.70179 | 141.39295 | 271 ft | 164 kts | 271° |
| 2026-05-07 00:52 | 40.70255 | 141.37912 | 105 ft | 142 kts | 274° |
| 2026-05-07 00:53 | 40.70310 | 141.36979 | 108 ft | 45 kts | 275° |
| 2026-05-07 00:53 | 40.70374 | 141.36948 | 109 ft | 18 kts | 3° |
| 2026-05-07 00:53 | 40.70518 | 141.37030 | 109 ft | 27 kts | 79° |
| 2026-05-07 00:53 | 40.70532 | 141.37224 | 107 ft | 9 kts | 23° |
| 2026-05-07 00:54 | 40.70585 | 141.37231 | 108 ft | 12 kts | 4° |